T/b Polar Slep — 3YCF — position and weather

sailwx.info

Track history (hours):
 
Tides and Currents Weather Stations Pressure Air Temp Water Temp Dewpoint Dewpoint Depression Visibility Wind Speed Wind Dir Waves Ship Positions

T/b Polar Slep

Last reported at 2015-Mar-15 19:08 UTC. Time now 2015-Mar-31 02:02 UTC.
Position N 66°21' E 012°57'.
Warning: this ship's position is 15 days out of date.

Length 16 m; draft 2.2 m.

Type: Towing. MMSI: 258354500.

Date/timePositionNaut miles runAvg speedWind from/ knotsBaromVisibWave heightAir tempDewpointWater temp
2015-Mar-15 19:08N 66°21' E 012°57'42 7.4
2015-Mar-15 13:27N 67°00' E 013°39'7 8.2
2015-Mar-15 12:33N 67°05' E 013°55'8 8.2
2015-Mar-15 11:33N 67°12' E 014°06'8 8.2
2015-Mar-15 10:33N 67°18' E 014°17'8 8.0
2015-Mar-15 09:33N 67°25' E 014°28'8 8.1
2015-Mar-15 08:32N 67°34' E 014°30'155 7.6
2015-Mar-14 12:13N 69°36' E 018°52'5 6.8
2015-Mar-14 11:32N 69°40' E 018°59'0 0.1
2015-Mar-14 10:30N 69°40' E 018°58'0 0.0
2015-Mar-14 09:16N 69°40' E 018°58'0 0.0
2015-Mar-14 08:33N 69°40' E 018°58'0 0.0
2015-Mar-14 07:26N 69°40' E 018°58'0 0.0
2015-Mar-14 06:29N 69°40' E 018°58'0 0.0
2015-Mar-14 05:33N 69°40' E 018°58'0 0.0
2015-Mar-14 04:32N 69°40' E 018°58'0 0.0
2015-Mar-14 03:33N 69°40' E 018°58'0 0.0
2015-Mar-14 02:33N 69°40' E 018°58'0 0.0
2015-Mar-14 01:31N 69°40' E 018°58'0 0.0
2015-Mar-14 00:33N 69°40' E 018°58'0 0.0
2015-Mar-13 23:33N 69°40' E 018°58'0 0.0
2015-Mar-13 22:33N 69°40' E 018°58'0 0.0
2015-Mar-13 21:33N 69°40' E 018°58'0 0.0
2015-Mar-13 20:33N 69°40' E 018°58'0 0.0
2015-Mar-13 19:33N 69°40' E 018°58'0 0.0
2015-Mar-13 18:33N 69°40' E 018°58'0 0.0
2015-Mar-13 17:33N 69°40' E 018°58'0 0.0
2015-Mar-13 16:33N 69°40' E 018°58'0 0.0
2015-Mar-13 15:33N 69°40' E 018°58'0 0.0
2015-Mar-13 14:30N 69°40' E 018°58'0 0.0
2015-Mar-13 13:32N 69°40' E 018°58'1 0.9
2015-Mar-13 12:33N 69°39' E 018°58'1 0.8
2015-Mar-13 11:26N 69°40' E 018°58'0 0.0
2015-Mar-13 10:31N 69°40' E 018°58'0 0.0
2015-Mar-13 09:33N 69°40' E 018°58'1 0.9
2015-Mar-13 08:33N 69°39' E 018°59'0 0.3
2015-Mar-13 07:33N 69°39' E 018°58'0 0.0
2015-Mar-13 06:33N 69°39' E 018°58'0 0.0
2015-Mar-13 05:33N 69°39' E 018°58'0 0.0
2015-Mar-13 04:33N 69°39' E 018°58'0 0.0
2015-Mar-13 03:33N 69°39' E 018°58'0 0.0
2015-Mar-13 02:33N 69°39' E 018°58'0 0.0
2015-Mar-13 01:33N 69°39' E 018°58'0 0.0
2015-Mar-13 00:33N 69°39' E 018°58'0 0.0
2015-Mar-12 23:33N 69°39' E 018°58'0 0.0
2015-Mar-12 22:33N 69°39' E 018°58'0 0.0
2015-Mar-12 21:33N 69°39' E 018°58'0 0.0
2015-Mar-12 20:33N 69°39' E 018°58'0 0.0
2015-Mar-12 19:33N 69°39' E 018°58'0 0.0
2015-Mar-12 18:33N 69°39' E 018°58'0 0.0
2015-Mar-12 17:33N 69°39' E 018°58'0 0.0
2015-Mar-12 16:33N 69°39' E 018°58'0 0.0
2015-Mar-12 15:33N 69°39' E 018°58'0 0.0
2015-Mar-12 14:33N 69°39' E 018°58'0 0.0
2015-Mar-12 13:33N 69°39' E 018°58'0 0.0
2015-Mar-12 12:33N 69°39' E 018°58'0 0.0
2015-Mar-12 11:33N 69°39' E 018°58'0 0.0
2015-Mar-12 10:33N 69°39' E 018°58'0 0.0
2015-Mar-12 09:33N 69°39' E 018°58'0 0.0
2015-Mar-12 08:33N 69°39' E 018°58'0 0.0
2015-Mar-12 07:33N 69°39' E 018°58'0 0.0
2015-Mar-12 06:33N 69°39' E 018°58'0 0.0
2015-Mar-12 05:33N 69°39' E 018°58'0 0.0
2015-Mar-12 04:33N 69°39' E 018°58'0 0.0
2015-Mar-12 03:33N 69°39' E 018°58'0 0.0
2015-Mar-12 02:33N 69°39' E 018°58'0 0.0
2015-Mar-12 01:33N 69°39' E 018°58'0 0.0
2015-Mar-12 00:33N 69°39' E 018°58'0 0.0
2015-Mar-11 23:33N 69°39' E 018°58'0 0.0
2015-Mar-11 22:33N 69°39' E 018°58'0 0.0
2015-Mar-11 21:33N 69°39' E 018°58'0 0.0
2015-Mar-11 20:33N 69°39' E 018°58'0 0.0
2015-Mar-11 19:33N 69°39' E 018°58'0 0.0
2015-Mar-11 18:33N 69°39' E 018°58'0 0.0
2015-Mar-11 17:33N 69°39' E 018°58'0 0.0
2015-Mar-11 16:33N 69°39' E 018°58'0 0.0
2015-Mar-11 15:33N 69°39' E 018°58'0 0.0
2015-Mar-11 14:33N 69°39' E 018°58'0 0.0
2015-Mar-11 13:33N 69°39' E 018°58'0 0.0
2015-Mar-11 12:33N 69°39' E 018°58'0 0.1
2015-Mar-11 11:33N 69°39' E 018°58'0 0.1
2015-Mar-11 10:33N 69°39' E 018°58'0 0.0
2015-Mar-11 09:33N 69°39' E 018°58'0 0.0
2015-Mar-11 08:33N 69°39' E 018°58'0 0.0
2015-Mar-11 07:33N 69°39' E 018°58'0 0.0
2015-Mar-11 06:33N 69°39' E 018°58'0 0.0
2015-Mar-11 05:33N 69°39' E 018°58'0 0.0
2015-Mar-11 04:33N 69°39' E 018°58'0 0.0
2015-Mar-11 03:33N 69°39' E 018°58'0 0.0
2015-Mar-11 02:33N 69°39' E 018°58'0 0.0
2015-Mar-11 01:33N 69°39' E 018°58'0 0.0
2015-Mar-11 00:33N 69°39' E 018°58'0 0.0
2015-Mar-10 23:33N 69°39' E 018°58'0 0.0
2015-Mar-10 22:33N 69°39' E 018°58'0 0.0
2015-Mar-10 21:33N 69°39' E 018°58'0 0.0
2015-Mar-10 20:33N 69°39' E 018°58'0 0.0
2015-Mar-10 19:33N 69°39' E 018°58'0 0.0
2015-Mar-10 18:33N 69°39' E 018°58'0 0.0
2015-Mar-10 17:33N 69°39' E 018°58'0 0.0
2015-Mar-10 16:33N 69°39' E 018°58'0 0.0
2015-Mar-10 15:33N 69°39' E 018°58'0 0.0
2015-Mar-10 14:33N 69°39' E 018°58'0 0.0
2015-Mar-10 13:33N 69°39' E 018°58'0 0.0
2015-Mar-10 12:33N 69°39' E 018°58'0 0.0
2015-Mar-10 11:33N 69°39' E 018°58'0 0.0
2015-Mar-10 10:33N 69°39' E 018°58'0 0.0
2015-Mar-10 09:33N 69°39' E 018°58'0 0.0
2015-Mar-10 08:33N 69°39' E 018°58'0 0.0
2015-Mar-10 07:33N 69°39' E 018°58'0 0.0
2015-Mar-10 06:33N 69°39' E 018°58'0 0.0
2015-Mar-10 05:33N 69°39' E 018°58'0 0.0
2015-Mar-10 04:33N 69°39' E 018°58'0 0.0
2015-Mar-10 03:33N 69°39' E 018°58'0 0.0
2015-Mar-10 02:33N 69°39' E 018°58'0 0.0
2015-Mar-10 01:33N 69°39' E 018°58'0 0.0
2015-Mar-10 00:33N 69°39' E 018°58'0 0.0
2015-Mar-09 23:33N 69°39' E 018°58'0 0.0
2015-Mar-09 22:33N 69°39' E 018°58'0 0.0
2015-Mar-09 21:33N 69°39' E 018°58'0 0.0
2015-Mar-09 20:33N 69°39' E 018°58'0 0.0
2015-Mar-09 19:33N 69°39' E 018°58'0 0.0
2015-Mar-09 18:33N 69°39' E 018°58'0 0.0
2015-Mar-09 17:33N 69°39' E 018°58'0 0.0
2015-Mar-09 16:33N 69°39' E 018°58'0 0.0
2015-Mar-09 15:33N 69°39' E 018°58'0 0.0
2015-Mar-09 14:33N 69°39' E 018°58'0 0.0
2015-Mar-09 13:33N 69°39' E 018°58'0 0.0
2015-Mar-09 12:33N 69°39' E 018°58'0 0.0
2015-Mar-09 11:33N 69°39' E 018°58'0 0.0
2015-Mar-09 10:33N 69°39' E 018°58'0 0.0
2015-Mar-09 09:33N 69°39' E 018°58'0 0.0
2015-Mar-09 08:33N 69°39' E 018°58'0 0.0
2015-Mar-09 07:33N 69°39' E 018°58'0 0.0
2015-Mar-09 06:33N 69°39' E 018°58'0 0.0
2015-Mar-09 05:33N 69°39' E 018°58'0 0.0
2015-Mar-09 04:33N 69°39' E 018°58'0 0.0
2015-Mar-09 03:33N 69°39' E 018°58'0 0.0
2015-Mar-09 02:33N 69°39' E 018°58'0 0.0
2015-Mar-09 01:33N 69°39' E 018°58'0 0.0
2015-Mar-09 00:33N 69°39' E 018°58'0 0.0
2015-Mar-08 23:33N 69°39' E 018°58'0 0.0
2015-Mar-08 22:33N 69°39' E 018°58'0 0.0
2015-Mar-08 21:33N 69°39' E 018°58'0 0.0
2015-Mar-08 20:33N 69°39' E 018°58'0 0.0
2015-Mar-08 19:33N 69°39' E 018°58'0 0.0
2015-Mar-08 18:33N 69°39' E 018°58'0 0.0
2015-Mar-08 17:33N 69°39' E 018°58'0 0.0
2015-Mar-08 16:33N 69°39' E 018°58'0 0.0
2015-Mar-08 15:33N 69°39' E 018°58'0 0.0
2015-Mar-08 14:33N 69°39' E 018°58'0 0.0
2015-Mar-08 13:33N 69°39' E 018°58'0 0.0
2015-Mar-08 12:33N 69°39' E 018°58'0 0.0
2015-Mar-08 11:33N 69°39' E 018°58'0 0.0
2015-Mar-08 10:33N 69°39' E 018°58'0 0.0
2015-Mar-08 09:33N 69°39' E 018°58'0 0.0
2015-Mar-08 08:33N 69°39' E 018°58'0 0.0
2015-Mar-08 07:33N 69°39' E 018°58'0 0.0
2015-Mar-08 06:33N 69°39' E 018°58'0 0.0
2015-Mar-08 05:33N 69°39' E 018°58'0 0.0
2015-Mar-08 04:33N 69°39' E 018°58'0 0.0
2015-Mar-08 03:33N 69°39' E 018°58'0 0.0
2015-Mar-08 02:33N 69°39' E 018°58'0 0.0
2015-Mar-08 01:33N 69°39' E 018°58'0 0.0
2015-Mar-08 00:33N 69°39' E 018°58'0 0.0
2015-Mar-07 23:33N 69°39' E 018°58'0 0.0
2015-Mar-07 22:33N 69°39' E 018°58'0 0.0
2015-Mar-07 21:33N 69°39' E 018°58'0 0.0
2015-Mar-07 20:33N 69°39' E 018°58'0 0.0
2015-Mar-07 19:33N 69°39' E 018°58'0 0.0
2015-Mar-07 18:33N 69°39' E 018°58'0 0.0
2015-Mar-07 17:33N 69°39' E 018°58'0 0.0
2015-Mar-07 16:33N 69°39' E 018°58'0 0.0
2015-Mar-07 15:33N 69°39' E 018°58'0 0.0
2015-Mar-07 14:33N 69°39' E 018°58'0 0.0
2015-Mar-07 13:33N 69°39' E 018°58'0 0.0
2015-Mar-07 12:33N 69°39' E 018°58'0 0.0
2015-Mar-07 11:33N 69°39' E 018°58'0 0.0
2015-Mar-07 10:33N 69°39' E 018°58'0 0.0
2015-Mar-07 09:33N 69°39' E 018°58'0 0.0
2015-Mar-07 08:33N 69°39' E 018°58'0 0.0
2015-Mar-07 07:33N 69°39' E 018°58'0 0.0
2015-Mar-07 06:33N 69°39' E 018°58'0 0.0
2015-Mar-07 05:33N 69°39' E 018°58'0 0.0
2015-Mar-07 04:33N 69°39' E 018°58'0 0.0
2015-Mar-07 03:33N 69°39' E 018°58'0 0.0
2015-Mar-07 02:33N 69°39' E 018°58'0 0.0
2015-Mar-07 01:33N 69°39' E 018°58'0 0.0
2015-Mar-07 00:33N 69°39' E 018°58'0 0.0
2015-Mar-06 23:33N 69°39' E 018°58'0 0.0
2015-Mar-06 22:33N 69°39' E 018°58'0 0.0
2015-Mar-06 21:33N 69°39' E 018°58'0 0.0
2015-Mar-06 20:33N 69°39' E 018°58'0 0.0
2015-Mar-06 19:33N 69°39' E 018°58'0 0.0
2015-Mar-06 18:33N 69°39' E 018°58'0 0.0
2015-Mar-06 17:33N 69°39' E 018°58'0 0.0
2015-Mar-06 16:33N 69°39' E 018°58'0 0.0
2015-Mar-06 15:33N 69°39' E 018°58'0 0.0
2015-Mar-06 14:33N 69°39' E 018°58'0 0.0
2015-Mar-06 13:33N 69°39' E 018°58'0 0.0
2015-Mar-06 12:33N 69°39' E 018°58'0 0.0
2015-Mar-06 11:33N 69°39' E 018°58'0 0.0
2015-Mar-06 10:33N 69°39' E 018°58'0 0.0
2015-Mar-06 09:33N 69°39' E 018°58'0 0.0
2015-Mar-06 08:33N 69°39' E 018°58'0 0.0
2015-Mar-06 07:33N 69°39' E 018°58'0 0.0
2015-Mar-06 06:33N 69°39' E 018°58'0 0.0
2015-Mar-06 05:33N 69°39' E 018°58'0 0.0
2015-Mar-06 04:34N 69°39' E 018°58'0 0.0
2015-Mar-06 03:33N 69°39' E 018°58'0 0.0
2015-Mar-06 02:33N 69°39' E 018°58'0 0.0
2015-Mar-06 01:33N 69°39' E 018°58'0 0.0
2015-Mar-06 00:33N 69°39' E 018°58'0 0.0
2015-Mar-05 23:33N 69°39' E 018°58'0 0.0
2015-Mar-05 22:33N 69°39' E 018°58'0 0.0
2015-Mar-05 21:33N 69°39' E 018°58'0 0.0
2015-Mar-05 20:33N 69°39' E 018°58'0 0.0
2015-Mar-05 19:33N 69°39' E 018°58'  
Track history (hours):
 
Tides and Currents Weather Stations Pressure Air Temp Water Temp Dewpoint Dewpoint Depression Visibility Wind Speed Wind Dir Waves Ship Positions

T/b Polar Slep

Last reported at 2015-Mar-15 19:08 UTC. Time now 2015-Mar-31 02:02 UTC.
Position N 66°21' E 012°57'.
Warning: this ship's position is 15 days out of date.

Length 16 m; draft 2.2 m.

Type: Towing. MMSI: 258354500.

Date/timePositionNaut miles runAvg speedWind from/ knotsBaromVisibWave heightAir tempDewpointWater temp
2015-Mar-15 19:08N 66°21' E 012°57'42 7.4
2015-Mar-15 13:27N 67°00' E 013°39'7 8.2
2015-Mar-15 12:33N 67°05' E 013°55'8 8.2
2015-Mar-15 11:33N 67°12' E 014°06'8 8.2
2015-Mar-15 10:33N 67°18' E 014°17'8 8.0
2015-Mar-15 09:33N 67°25' E 014°28'8 8.1
2015-Mar-15 08:32N 67°34' E 014°30'155 7.6
2015-Mar-14 12:13N 69°36' E 018°52'5 6.8
2015-Mar-14 11:32N 69°40' E 018°59'0 0.1
2015-Mar-14 10:30N 69°40' E 018°58'0 0.0
2015-Mar-14 09:16N 69°40' E 018°58'0 0.0
2015-Mar-14 08:33N 69°40' E 018°58'0 0.0
2015-Mar-14 07:26N 69°40' E 018°58'0 0.0
2015-Mar-14 06:29N 69°40' E 018°58'0 0.0
2015-Mar-14 05:33N 69°40' E 018°58'0 0.0
2015-Mar-14 04:32N 69°40' E 018°58'0 0.0
2015-Mar-14 03:33N 69°40' E 018°58'0 0.0
2015-Mar-14 02:33N 69°40' E 018°58'0 0.0
2015-Mar-14 01:31N 69°40' E 018°58'0 0.0
2015-Mar-14 00:33N 69°40' E 018°58'0 0.0
2015-Mar-13 23:33N 69°40' E 018°58'0 0.0
2015-Mar-13 22:33N 69°40' E 018°58'0 0.0
2015-Mar-13 21:33N 69°40' E 018°58'0 0.0
2015-Mar-13 20:33N 69°40' E 018°58'0 0.0
2015-Mar-13 19:33N 69°40' E 018°58'0 0.0
2015-Mar-13 18:33N 69°40' E 018°58'0 0.0
2015-Mar-13 17:33N 69°40' E 018°58'0 0.0
2015-Mar-13 16:33N 69°40' E 018°58'0 0.0
2015-Mar-13 15:33N 69°40' E 018°58'0 0.0
2015-Mar-13 14:30N 69°40' E 018°58'0 0.0
2015-Mar-13 13:32N 69°40' E 018°58'1 0.9
2015-Mar-13 12:33N 69°39' E 018°58'1 0.8
2015-Mar-13 11:26N 69°40' E 018°58'0 0.0
2015-Mar-13 10:31N 69°40' E 018°58'0 0.0
2015-Mar-13 09:33N 69°40' E 018°58'1 0.9
2015-Mar-13 08:33N 69°39' E 018°59'0 0.3
2015-Mar-13 07:33N 69°39' E 018°58'0 0.0
2015-Mar-13 06:33N 69°39' E 018°58'0 0.0
2015-Mar-13 05:33N 69°39' E 018°58'0 0.0
2015-Mar-13 04:33N 69°39' E 018°58'0 0.0
2015-Mar-13 03:33N 69°39' E 018°58'0 0.0
2015-Mar-13 02:33N 69°39' E 018°58'0 0.0
2015-Mar-13 01:33N 69°39' E 018°58'0 0.0
2015-Mar-13 00:33N 69°39' E 018°58'0 0.0
2015-Mar-12 23:33N 69°39' E 018°58'0 0.0
2015-Mar-12 22:33N 69°39' E 018°58'0 0.0
2015-Mar-12 21:33N 69°39' E 018°58'0 0.0
2015-Mar-12 20:33N 69°39' E 018°58'0 0.0
2015-Mar-12 19:33N 69°39' E 018°58'0 0.0
2015-Mar-12 18:33N 69°39' E 018°58'0 0.0
2015-Mar-12 17:33N 69°39' E 018°58'0 0.0
2015-Mar-12 16:33N 69°39' E 018°58'0 0.0
2015-Mar-12 15:33N 69°39' E 018°58'0 0.0
2015-Mar-12 14:33N 69°39' E 018°58'0 0.0
2015-Mar-12 13:33N 69°39' E 018°58'0 0.0
2015-Mar-12 12:33N 69°39' E 018°58'0 0.0
2015-Mar-12 11:33N 69°39' E 018°58'0 0.0
2015-Mar-12 10:33N 69°39' E 018°58'0 0.0
2015-Mar-12 09:33N 69°39' E 018°58'0 0.0
2015-Mar-12 08:33N 69°39' E 018°58'0 0.0
2015-Mar-12 07:33N 69°39' E 018°58'0 0.0
2015-Mar-12 06:33N 69°39' E 018°58'0 0.0
2015-Mar-12 05:33N 69°39' E 018°58'0 0.0
2015-Mar-12 04:33N 69°39' E 018°58'0 0.0
2015-Mar-12 03:33N 69°39' E 018°58'0 0.0
2015-Mar-12 02:33N 69°39' E 018°58'0 0.0
2015-Mar-12 01:33N 69°39' E 018°58'0 0.0
2015-Mar-12 00:33N 69°39' E 018°58'0 0.0
2015-Mar-11 23:33N 69°39' E 018°58'0 0.0
2015-Mar-11 22:33N 69°39' E 018°58'0 0.0
2015-Mar-11 21:33N 69°39' E 018°58'0 0.0
2015-Mar-11 20:33N 69°39' E 018°58'0 0.0
2015-Mar-11 19:33N 69°39' E 018°58'0 0.0
2015-Mar-11 18:33N 69°39' E 018°58'0 0.0
2015-Mar-11 17:33N 69°39' E 018°58'0 0.0
2015-Mar-11 16:33N 69°39' E 018°58'0 0.0
2015-Mar-11 15:33N 69°39' E 018°58'0 0.0
2015-Mar-11 14:33N 69°39' E 018°58'0 0.0
2015-Mar-11 13:33N 69°39' E 018°58'0 0.0
2015-Mar-11 12:33N 69°39' E 018°58'0 0.1
2015-Mar-11 11:33N 69°39' E 018°58'0 0.1
2015-Mar-11 10:33N 69°39' E 018°58'0 0.0
2015-Mar-11 09:33N 69°39' E 018°58'0 0.0
2015-Mar-11 08:33N 69°39' E 018°58'0 0.0
2015-Mar-11 07:33N 69°39' E 018°58'0 0.0
2015-Mar-11 06:33N 69°39' E 018°58'0 0.0
2015-Mar-11 05:33N 69°39' E 018°58'0 0.0
2015-Mar-11 04:33N 69°39' E 018°58'0 0.0
2015-Mar-11 03:33N 69°39' E 018°58'0 0.0
2015-Mar-11 02:33N 69°39' E 018°58'0 0.0
2015-Mar-11 01:33N 69°39' E 018°58'0 0.0
2015-Mar-11 00:33N 69°39' E 018°58'0 0.0
2015-Mar-10 23:33N 69°39' E 018°58'0 0.0
2015-Mar-10 22:33N 69°39' E 018°58'0 0.0
2015-Mar-10 21:33N 69°39' E 018°58'0 0.0
2015-Mar-10 20:33N 69°39' E 018°58'0 0.0
2015-Mar-10 19:33N 69°39' E 018°58'0 0.0
2015-Mar-10 18:33N 69°39' E 018°58'0 0.0
2015-Mar-10 17:33N 69°39' E 018°58'0 0.0
2015-Mar-10 16:33N 69°39' E 018°58'0 0.0
2015-Mar-10 15:33N 69°39' E 018°58'0 0.0
2015-Mar-10 14:33N 69°39' E 018°58'0 0.0
2015-Mar-10 13:33N 69°39' E 018°58'0 0.0
2015-Mar-10 12:33N 69°39' E 018°58'0 0.0
2015-Mar-10 11:33N 69°39' E 018°58'0 0.0
2015-Mar-10 10:33N 69°39' E 018°58'0 0.0
2015-Mar-10 09:33N 69°39' E 018°58'0 0.0
2015-Mar-10 08:33N 69°39' E 018°58'0 0.0
2015-Mar-10 07:33N 69°39' E 018°58'0 0.0
2015-Mar-10 06:33N 69°39' E 018°58'0 0.0
2015-Mar-10 05:33N 69°39' E 018°58'0 0.0
2015-Mar-10 04:33N 69°39' E 018°58'0 0.0
2015-Mar-10 03:33N 69°39' E 018°58'0 0.0
2015-Mar-10 02:33N 69°39' E 018°58'0 0.0
2015-Mar-10 01:33N 69°39' E 018°58'0 0.0
2015-Mar-10 00:33N 69°39' E 018°58'0 0.0
2015-Mar-09 23:33N 69°39' E 018°58'0 0.0
2015-Mar-09 22:33N 69°39' E 018°58'0 0.0
2015-Mar-09 21:33N 69°39' E 018°58'0 0.0
2015-Mar-09 20:33N 69°39' E 018°58'0 0.0
2015-Mar-09 19:33N 69°39' E 018°58'0 0.0
2015-Mar-09 18:33N 69°39' E 018°58'0 0.0
2015-Mar-09 17:33N 69°39' E 018°58'0 0.0
2015-Mar-09 16:33N 69°39' E 018°58'0 0.0
2015-Mar-09 15:33N 69°39' E 018°58'0 0.0
2015-Mar-09 14:33N 69°39' E 018°58'0 0.0
2015-Mar-09 13:33N 69°39' E 018°58'0 0.0
2015-Mar-09 12:33N 69°39' E 018°58'0 0.0
2015-Mar-09 11:33N 69°39' E 018°58'0 0.0
2015-Mar-09 10:33N 69°39' E 018°58'0 0.0
2015-Mar-09 09:33N 69°39' E 018°58'0 0.0
2015-Mar-09 08:33N 69°39' E 018°58'0 0.0
2015-Mar-09 07:33N 69°39' E 018°58'0 0.0
2015-Mar-09 06:33N 69°39' E 018°58'0 0.0
2015-Mar-09 05:33N 69°39' E 018°58'0 0.0
2015-Mar-09 04:33N 69°39' E 018°58'0 0.0
2015-Mar-09 03:33N 69°39' E 018°58'0 0.0
2015-Mar-09 02:33N 69°39' E 018°58'0 0.0
2015-Mar-09 01:33N 69°39' E 018°58'0 0.0
2015-Mar-09 00:33N 69°39' E 018°58'0 0.0
2015-Mar-08 23:33N 69°39' E 018°58'0 0.0
2015-Mar-08 22:33N 69°39' E 018°58'0 0.0
2015-Mar-08 21:33N 69°39' E 018°58'0 0.0
2015-Mar-08 20:33N 69°39' E 018°58'0 0.0
2015-Mar-08 19:33N 69°39' E 018°58'0 0.0
2015-Mar-08 18:33N 69°39' E 018°58'0 0.0
2015-Mar-08 17:33N 69°39' E 018°58'0 0.0
2015-Mar-08 16:33N 69°39' E 018°58'0 0.0
2015-Mar-08 15:33N 69°39' E 018°58'0 0.0
2015-Mar-08 14:33N 69°39' E 018°58'0 0.0
2015-Mar-08 13:33N 69°39' E 018°58'0 0.0
2015-Mar-08 12:33N 69°39' E 018°58'0 0.0
2015-Mar-08 11:33N 69°39' E 018°58'0 0.0
2015-Mar-08 10:33N 69°39' E 018°58'0 0.0
2015-Mar-08 09:33N 69°39' E 018°58'0 0.0
2015-Mar-08 08:33N 69°39' E 018°58'0 0.0
2015-Mar-08 07:33N 69°39' E 018°58'0 0.0
2015-Mar-08 06:33N 69°39' E 018°58'0 0.0
2015-Mar-08 05:33N 69°39' E 018°58'0 0.0
2015-Mar-08 04:33N 69°39' E 018°58'0 0.0
2015-Mar-08 03:33N 69°39' E 018°58'0 0.0
2015-Mar-08 02:33N 69°39' E 018°58'0 0.0
2015-Mar-08 01:33N 69°39' E 018°58'0 0.0
2015-Mar-08 00:33N 69°39' E 018°58'0 0.0
2015-Mar-07 23:33N 69°39' E 018°58'0 0.0
2015-Mar-07 22:33N 69°39' E 018°58'0 0.0
2015-Mar-07 21:33N 69°39' E 018°58'0 0.0
2015-Mar-07 20:33N 69°39' E 018°58'0 0.0
2015-Mar-07 19:33N 69°39' E 018°58'0 0.0
2015-Mar-07 18:33N 69°39' E 018°58'0 0.0
2015-Mar-07 17:33N 69°39' E 018°58'0 0.0
2015-Mar-07 16:33N 69°39' E 018°58'0 0.0
2015-Mar-07 15:33N 69°39' E 018°58'0 0.0
2015-Mar-07 14:33N 69°39' E 018°58'0 0.0
2015-Mar-07 13:33N 69°39' E 018°58'0 0.0
2015-Mar-07 12:33N 69°39' E 018°58'0 0.0
2015-Mar-07 11:33N 69°39' E 018°58'0 0.0
2015-Mar-07 10:33N 69°39' E 018°58'0 0.0
2015-Mar-07 09:33N 69°39' E 018°58'0 0.0
2015-Mar-07 08:33N 69°39' E 018°58'0 0.0
2015-Mar-07 07:33N 69°39' E 018°58'0 0.0
2015-Mar-07 06:33N 69°39' E 018°58'0 0.0
2015-Mar-07 05:33N 69°39' E 018°58'0 0.0
2015-Mar-07 04:33N 69°39' E 018°58'0 0.0
2015-Mar-07 03:33N 69°39' E 018°58'0 0.0
2015-Mar-07 02:33N 69°39' E 018°58'0 0.0
2015-Mar-07 01:33N 69°39' E 018°58'0 0.0
2015-Mar-07 00:33N 69°39' E 018°58'0 0.0
2015-Mar-06 23:33N 69°39' E 018°58'0 0.0
2015-Mar-06 22:33N 69°39' E 018°58'0 0.0
2015-Mar-06 21:33N 69°39' E 018°58'0 0.0
2015-Mar-06 20:33N 69°39' E 018°58'0 0.0
2015-Mar-06 19:33N 69°39' E 018°58'0 0.0
2015-Mar-06 18:33N 69°39' E 018°58'0 0.0
2015-Mar-06 17:33N 69°39' E 018°58'0 0.0
2015-Mar-06 16:33N 69°39' E 018°58'0 0.0
2015-Mar-06 15:33N 69°39' E 018°58'0 0.0
2015-Mar-06 14:33N 69°39' E 018°58'0 0.0
2015-Mar-06 13:33N 69°39' E 018°58'0 0.0
2015-Mar-06 12:33N 69°39' E 018°58'0 0.0
2015-Mar-06 11:33N 69°39' E 018°58'0 0.0
2015-Mar-06 10:33N 69°39' E 018°58'0 0.0
2015-Mar-06 09:33N 69°39' E 018°58'0 0.0
2015-Mar-06 08:33N 69°39' E 018°58'0 0.0
2015-Mar-06 07:33N 69°39' E 018°58'0 0.0
2015-Mar-06 06:33N 69°39' E 018°58'0 0.0
2015-Mar-06 05:33N 69°39' E 018°58'0 0.0
2015-Mar-06 04:34N 69°39' E 018°58'0 0.0
2015-Mar-06 03:33N 69°39' E 018°58'0 0.0
2015-Mar-06 02:33N 69°39' E 018°58'0 0.0
2015-Mar-06 01:33N 69°39' E 018°58'0 0.0
2015-Mar-06 00:33N 69°39' E 018°58'0 0.0
2015-Mar-05 23:33N 69°39' E 018°58'0 0.0
2015-Mar-05 22:33N 69°39' E 018°58'0 0.0
2015-Mar-05 21:33N 69°39' E 018°58'0 0.0
2015-Mar-05 20:33N 69°39' E 018°58'0 0.0
2015-Mar-05 19:33N 69°39' E 018°58'  

Dump ship's entire track history